Time;durP1;ratioP1;P1;durP2;ratioP2;P2;SDS_P1;SDS_P2;PMS_P1;PMS_P2;Temp;Humidity;BMP_temperature;BMP_pressure;BME280_temperature;BME280_humidity;BME280_pressure;Samples;Min_cycle;Max_cycle;Signal;HPM_P1;HPM_P2
2021/01/27 00:00:39;;;;;;;47.90;20.77;;;1.70;99.90;;;;;;4979142;28;20034;-67
2021/01/27 00:03:06;;;;;;;44.00;19.80;;;1.80;99.90;;;;;;4962701;28;20039;-72
2021/01/27 00:05:34;;;;;;;45.78;19.17;;;1.70;99.90;;;;;;4980182;28;20045;-67
2021/01/27 00:08:00;;;;;;;39.33;18.55;;;1.70;99.90;;;;;;4962148;28;20034;-67
2021/01/27 00:10:27;;;;;;;43.83;19.65;;;1.70;99.90;;;;;;4979888;28;20029;-71
2021/01/27 00:12:52;;;;;;;40.42;18.95;;;1.70;99.90;;;;;;4979048;28;20494;-72
2021/01/27 00:15:25;;;;;;;41.55;17.40;;;1.70;99.90;;;;;;4979513;28;20030;-72
2021/01/27 00:17:51;;;;;;;40.00;17.63;;;1.70;99.90;;;;;;4978883;28;20046;-72
2021/01/27 00:20:19;;;;;;;41.63;17.75;;;1.80;99.90;;;;;;4962014;28;20044;-72
2021/01/27 00:22:46;;;;;;;41.15;17.90;;;1.90;99.90;;;;;;4977158;28;20088;-71
2021/01/27 00:25:13;;;;;;;37.03;17.10;;;1.80;99.90;;;;;;4978589;28;20022;-72
2021/01/27 00:27:39;;;;;;;43.45;18.83;;;1.90;99.90;;;;;;4978950;28;20410;-72
2021/01/27 00:30:18;;;;;;;41.42;17.45;;;1.90;99.90;;;;;;4979020;28;20042;-72
2021/01/27 00:32:44;;;;;;;36.13;16.73;;;1.80;99.90;;;;;;4960956;28;20573;-72
2021/01/27 00:35:11;;;;;;;36.72;16.38;;;1.80;99.90;;;;;;4972326;28;20030;-72
2021/01/27 00:37:36;;;;;;;33.80;16.85;;;1.90;99.90;;;;;;4978414;28;20039;-72
2021/01/27 00:40:04;;;;;;;35.80;16.15;;;1.90;99.90;;;;;;4960148;28;20046;-72
2021/01/27 00:42:30;;;;;;;35.95;15.75;;;1.90;99.90;;;;;;4960989;28;20061;-72
2021/01/27 00:44:56;;;;;;;32.15;14.90;;;1.90;99.90;;;;;;4961924;28;20034;-72
2021/01/27 00:47:21;;;;;;;36.22;15.80;;;1.90;99.90;;;;;;4978182;28;20073;-72
2021/01/27 00:49:47;;;;;;;36.33;15.98;;;1.90;99.90;;;;;;4978339;28;20800;-67
2021/01/27 00:52:16;;;;;;;37.67;15.48;;;1.90;99.90;;;;;;4960582;28;20114;-67
2021/01/27 00:54:43;;;;;;;32.97;15.38;;;1.90;99.90;;;;;;4975329;28;20343;-67
2021/01/27 00:57:08;;;;;;;36.83;16.02;;;1.80;99.90;;;;;;4977970;28;20030;-67
2021/01/27 00:59:34;;;;;;;36.80;16.38;;;1.80;99.90;;;;;;4973945;28;20031;-65
2021/01/27 01:02:00;;;;;;;33.58;16.33;;;1.70;99.90;;;;;;4959771;28;20400;-65
2021/01/27 01:04:43;;;;;;;38.55;18.23;;;1.60;99.90;;;;;;4960433;28;20034;-65
2021/01/27 01:07:08;;;;;;;39.90;17.85;;;1.60;99.90;;;;;;4975354;28;20026;-65
2021/01/27 01:09:34;;;;;;;40.40;17.85;;;1.40;99.90;;;;;;4977066;28;20430;-67
2021/01/27 01:11:59;;;;;;;38.35;16.95;;;1.40;99.90;;;;;;4977966;28;20080;-67
2021/01/27 01:14:26;;;;;;;38.28;17.30;;;1.40;99.90;;;;;;4977820;28;20100;-67
2021/01/27 01:16:52;;;;;;;38.72;17.40;;;1.20;99.90;;;;;;4942488;28;20042;-67
2021/01/27 01:19:18;;;;;;;48.03;19.40;;;1.10;99.90;;;;;;4976555;28;20034;-67
2021/01/27 01:21:44;;;;;;;44.80;19.05;;;1.10;99.90;;;;;;4975984;28;20042;-67
2021/01/27 01:24:10;;;;;;;51.72;18.35;;;1.00;99.90;;;;;;4976886;28;20050;-67
2021/01/27 01:26:35;;;;;;;53.38;20.10;;;0.90;99.90;;;;;;4976951;28;20035;-68
2021/01/27 01:29:01;;;;;;;49.70;19.92;;;0.80;99.90;;;;;;4977007;28;20041;-67
2021/01/27 01:31:26;;;;;;;48.15;19.83;;;0.80;99.90;;;;;;4976717;28;20042;-67
2021/01/27 01:33:52;;;;;;;54.13;20.35;;;0.70;99.90;;;;;;4959170;28;20105;-67
2021/01/27 01:36:18;;;;;;;53.70;20.40;;;0.70;99.90;;;;;;4959104;28;20042;-67
2021/01/27 01:38:45;;;;;;;53.85;21.38;;;0.60;99.90;;;;;;4958275;28;20121;-68
2021/01/27 01:41:11;;;;;;;55.38;22.10;;;0.60;99.90;;;;;;4970933;28;20042;-67
2021/01/27 01:43:39;;;;;;;53.38;21.55;;;0.60;99.90;;;;;;4972858;28;20473;-67
2021/01/27 01:46:19;;;;;;;59.90;21.70;;;0.50;99.90;;;;;;4959434;28;20038;-67
2021/01/27 01:49:04;;;;;;;60.15;23.27;;;0.40;99.90;;;;;;4977446;28;20030;-67
2021/01/27 01:51:58;;;;;;;52.63;21.77;;;0.30;99.90;;;;;;4961075;28;20101;-67
2021/01/27 01:54:36;;;;;;;51.85;21.35;;;0.20;99.90;;;;;;4977130;28;20034;-68
2021/01/27 01:57:12;;;;;;;62.33;22.45;;;0.10;99.90;;;;;;4976862;28;20394;-70
2021/01/27 01:59:40;;;;;;;69.93;24.48;;;0.10;99.90;;;;;;4975243;28;20049;-71
2021/01/27 02:02:09;;;;;;;67.72;23.10;;;0.10;99.90;;;;;;4944111;28;20401;-67
2021/01/27 02:04:43;;;;;;;68.82;25.25;;;0.10;99.90;;;;;;4976233;28;20075;-67
2021/01/27 02:07:09;;;;;;;72.35;25.08;;;0.10;99.90;;;;;;4958591;28;20152;-67
2021/01/27 02:09:35;;;;;;;67.95;24.65;;;0.20;99.90;;;;;;4976004;28;20654;-67
2021/01/27 02:12:16;;;;;;;82.55;26.95;;;0.20;99.90;;;;;;4976607;28;20717;-67
2021/01/27 02:15:13;;;;;;;81.47;27.77;;;0.20;99.90;;;;;;4959339;28;20767;-67
2021/01/27 02:17:53;;;;;;;88.25;27.58;;;0.20;99.90;;;;;;4968148;28;20074;-67
2021/01/27 02:20:43;;;;;;;83.82;29.90;;;0.20;99.90;;;;;;4977579;28;20056;-67
2021/01/27 02:23:37;;;;;;;88.38;29.02;;;0.10;99.90;;;;;;4976256;28;20034;-67
2021/01/27 02:26:09;;;;;;;86.88;29.25;;;0.10;99.90;;;;;;4977453;28;20053;-68
2021/01/27 02:28:48;;;;;;;95.97;31.23;;;0.10;99.90;;;;;;4977241;28;20030;-68
2021/01/27 02:31:40;;;;;;;98.95;30.52;;;0.10;99.90;;;;;;4959461;28;20050;-68
2021/01/27 02:34:11;;;;;;;92.30;29.77;;;0.10;99.90;;;;;;4959258;28;20319;-67
2021/01/27 02:36:45;;;;;;;97.72;30.63;;;0.10;99.90;;;;;;4961824;28;20034;-67
2021/01/27 02:39:19;;;;;;;109.55;32.60;;;0.10;99.90;;;;;;4958060;28;20793;-67
2021/01/27 02:41:54;;;;;;;93.93;30.50;;;0.20;99.90;;;;;;4977276;28;20488;-68
2021/01/27 02:44:24;;;;;;;97.40;31.27;;;0.20;99.90;;;;;;4969979;28;20034;-68
2021/01/27 02:46:53;;;;;;;94.78;32.17;;;0.20;99.90;;;;;;4976105;28;20035;-67
2021/01/27 02:49:27;;;;;;;84.47;30.08;;;0.30;99.90;;;;;;4958435;28;20030;-67
2021/01/27 02:52:11;;;;;;;91.70;29.45;;;0.30;99.90;;;;;;4959011;28;20489;-67
2021/01/27 02:55:06;;;;;;;89.70;29.42;;;0.20;99.90;;;;;;4972823;28;20098;-67
2021/01/27 02:57:40;;;;;;;81.07;28.77;;;0.20;99.90;;;;;;4970746;28;20081;-67
2021/01/27 03:00:28;;;;;;;90.97;30.55;;;0.20;99.90;;;;;;4979161;28;20093;-67
2021/01/27 03:03:05;;;;;;;92.45;30.70;;;0.20;99.90;;;;;;4977569;28;20058;-67
2021/01/27 03:05:39;;;;;;;89.07;31.70;;;0.20;99.90;;;;;;4975659;28;20042;-67
2021/01/27 03:08:16;;;;;;;94.60;31.92;;;0.20;99.90;;;;;;4980400;28;20046;-71
2021/01/27 03:10:53;;;;;;;88.63;30.65;;;0.30;99.90;;;;;;4980218;28;20040;-72
2021/01/27 03:13:19;;;;;;;98.40;33.08;;;0.30;99.90;;;;;;4962994;28;20069;-69
2021/01/27 03:15:45;;;;;;;99.32;30.65;;;0.30;99.90;;;;;;4979431;28;20125;-69
2021/01/27 03:18:17;;;;;;;92.47;31.02;;;0.30;99.90;;;;;;4980395;28;20030;-70
2021/01/27 03:20:46;;;;;;;88.00;30.35;;;0.20;99.90;;;;;;4962148;28;20039;-66
2021/01/27 03:23:17;;;;;;;94.05;32.10;;;0.20;99.90;;;;;;4979443;28;20062;-66
2021/01/27 03:26:04;;;;;;;99.55;32.75;;;0.30;99.90;;;;;;4961705;28;20046;-66
2021/01/27 03:28:33;;;;;;;93.63;32.88;;;0.30;99.90;;;;;;4979634;28;20173;-69
2021/01/27 03:30:59;;;;;;;94.15;33.30;;;0.30;99.90;;;;;;4978991;28;20026;-70
2021/01/27 03:33:35;;;;;;;96.90;33.78;;;0.30;99.90;;;;;;4961977;28;20413;-69
2021/01/27 03:36:05;;;;;;;100.22;34.72;;;0.30;99.90;;;;;;4979184;28;20048;-70
2021/01/27 03:38:36;;;;;;;97.65;32.67;;;0.40;99.90;;;;;;4979341;28;20045;-70
2021/01/27 03:41:32;;;;;;;103.38;33.40;;;0.40;99.90;;;;;;4979664;28;20057;-69
2021/01/27 03:44:11;;;;;;;115.60;36.25;;;0.40;99.90;;;;;;4978613;28;20038;-70
2021/01/27 03:47:00;;;;;;;116.82;35.83;;;0.60;99.90;;;;;;4961181;28;20041;-70
2021/01/27 03:49:32;;;;;;;126.28;37.75;;;0.60;99.90;;;;;;4960448;28;20035;-70
2021/01/27 03:52:08;;;;;;;122.15;39.45;;;0.70;99.90;;;;;;4961319;28;20034;-70
2021/01/27 03:54:40;;;;;;;116.95;38.67;;;0.60;99.90;;;;;;4961312;28;20042;-70
2021/01/27 03:57:12;;;;;;;120.57;38.97;;;0.60;99.90;;;;;;4945367;28;20042;-70
2021/01/27 03:59:38;;;;;;;122.88;39.85;;;0.60;99.90;;;;;;4978115;28;20816;-70
2021/01/27 04:02:18;;;;;;;125.82;41.17;;;0.60;99.90;;;;;;4978858;28;20049;-70
2021/01/27 04:04:44;;;;;;;123.40;38.92;;;0.70;99.90;;;;;;4978436;28;20046;-70
2021/01/27 04:07:10;;;;;;;121.80;39.88;;;0.70;99.90;;;;;;4978607;28;20108;-70
2021/01/27 04:09:36;;;;;;;135.40;41.63;;;0.70;99.90;;;;;;4978659;28;20038;-65
2021/01/27 04:12:02;;;;;;;141.73;42.20;;;0.70;99.90;;;;;;4977746;28;20030;-65
2021/01/27 04:14:28;;;;;;;127.18;40.88;;;0.70;99.90;;;;;;4978260;28;20383;-65
2021/01/27 04:16:53;;;;;;;133.20;41.90;;;0.60;99.90;;;;;;4944087;28;20109;-65
2021/01/27 04:19:19;;;;;;;124.20;39.45;;;0.60;99.90;;;;;;4978892;28;20038;-65
2021/01/27 04:21:45;;;;;;;135.65;41.13;;;0.60;99.90;;;;;;4977944;28;20096;-66
2021/01/27 04:24:10;;;;;;;110.07;38.72;;;0.70;99.90;;;;;;4960990;28;20030;-65
2021/01/27 04:26:37;;;;;;;126.65;38.47;;;0.70;99.90;;;;;;4977226;28;20034;-66
2021/01/27 04:29:04;;;;;;;98.63;35.53;;;0.50;99.90;;;;;;4977692;28;20034;-66
2021/01/27 04:31:29;;;;;;;105.28;34.60;;;0.40;99.90;;;;;;4977859;28;20066;-66
2021/01/27 04:33:55;;;;;;;93.63;34.83;;;0.40;99.90;;;;;;4974812;28;20035;-66
2021/01/27 04:36:21;;;;;;;113.53;38.28;;;0.30;99.90;;;;;;4960154;28;20062;-66
2021/01/27 04:38:47;;;;;;;104.03;35.85;;;0.40;99.90;;;;;;4978308;28;20584;-70
2021/01/27 04:41:12;;;;;;;99.30;34.03;;;0.30;99.90;;;;;;4978617;28;20038;-66
2021/01/27 04:43:40;;;;;;;105.00;35.53;;;0.30;99.90;;;;;;4977949;28;20031;-66
2021/01/27 04:46:20;;;;;;;92.95;33.30;;;0.20;99.90;;;;;;4976885;28;20034;-66
2021/01/27 04:48:55;;;;;;;104.70;35.03;;;0.20;99.90;;;;;;4960287;28;20796;-66
2021/01/27 04:51:31;;;;;;;102.68;34.40;;;0.20;99.90;;;;;;4960770;28;20109;-66
2021/01/27 04:54:27;;;;;;;105.40;35.50;;;0.20;99.90;;;;;;4978177;28;20053;-66
2021/01/27 04:56:59;;;;;;;97.00;33.67;;;0.20;99.90;;;;;;4960179;28;20111;-66
2021/01/27 04:59:47;;;;;;;95.65;33.60;;;0.10;99.90;;;;;;4977524;28;20848;-66
2021/01/27 05:02:31;;;;;;;103.72;33.58;;;0.10;99.90;;;;;;4978325;28;20121;-66
2021/01/27 05:05:03;;;;;;;91.47;33.10;;;0.00;99.90;;;;;;4959691;28;20137;-66
2021/01/27 05:07:42;;;;;;;92.07;33.30;;;0.00;99.90;;;;;;4956857;28;20065;-66
2021/01/27 05:10:10;;;;;;;82.72;32.80;;;0.00;99.90;;;;;;4943663;28;20041;-66
2021/01/27 05:13:13;;;;;;;83.10;32.13;;;0.00;99.90;;;;;;4976634;28;20034;-65
2021/01/27 05:15:39;;;;;;;90.60;33.10;;;0.10;99.90;;;;;;4952405;28;20054;-66
2021/01/27 05:18:04;;;;;;;88.72;33.03;;;0.30;99.90;;;;;;4977395;28;20045;-66
2021/01/27 05:20:30;;;;;;;86.82;31.55;;;0.30;99.90;;;;;;4977557;28;20031;-66
2021/01/27 05:22:57;;;;;;;80.00;31.27;;;0.30;99.90;;;;;;4974486;28;20066;-65
2021/01/27 05:25:36;;;;;;;76.82;30.80;;;0.30;99.90;;;;;;4960614;28;20058;-66
2021/01/27 05:28:06;;;;;;;74.80;29.70;;;0.30;99.90;;;;;;4978894;28;20549;-70
2021/01/27 05:30:37;;;;;;;76.03;30.20;;;0.40;99.90;;;;;;4979234;28;20045;-71
2021/01/27 05:33:03;;;;;;;71.95;30.27;;;0.50;99.90;;;;;;4977847;28;20038;-70
2021/01/27 05:35:36;;;;;;;80.32;31.75;;;0.60;99.90;;;;;;4960133;28;20088;-70
2021/01/27 05:38:28;;;;;;;109.85;43.15;;;0.70;99.90;;;;;;4959263;28;20069;-71
2021/01/27 05:41:19;;;;;;;111.53;48.42;;;0.80;99.90;;;;;;4976853;28;20066;-70
2021/01/27 05:43:50;;;;;;;123.70;56.63;;;0.70;99.90;;;;;;4976584;28;20080;-70
2021/01/27 05:46:38;;;;;;;93.28;40.22;;;0.80;99.90;;;;;;4977464;28;20041;-66
2021/01/27 05:49:10;;;;;;;71.90;30.38;;;0.70;99.90;;;;;;4976038;28;20057;-66
2021/01/27 05:51:39;;;;;;;74.53;31.35;;;0.70;99.90;;;;;;4959794;28;20128;-66
2021/01/27 05:54:21;;;;;;;63.63;28.48;;;0.70;99.90;;;;;;4977046;28;20038;-66
2021/01/27 05:56:47;;;;;;;65.07;28.63;;;0.70;99.90;;;;;;4976926;28;20030;-66
2021/01/27 05:59:28;;;;;;;60.35;26.65;;;0.80;99.90;;;;;;4976160;28;20794;-66
2021/01/27 06:02:05;;;;;;;59.40;27.00;;;0.80;99.90;;;;;;4977339;28;20042;-66
2021/01/27 06:04:36;;;;;;;68.30;28.08;;;0.80;99.90;;;;;;4959011;28;20113;-66
2021/01/27 06:07:08;;;;;;;59.72;27.33;;;0.80;99.90;;;;;;4976680;28;20081;-66
2021/01/27 06:09:36;;;;;;;56.35;26.08;;;0.70;99.90;;;;;;4976929;28;20045;-69
2021/01/27 06:12:09;;;;;;;64.22;26.75;;;0.70;99.90;;;;;;4976026;28;20113;-70
2021/01/27 06:14:35;;;;;;;54.60;25.60;;;0.60;99.90;;;;;;4977001;28;20185;-70
2021/01/27 06:17:21;;;;;;;65.18;27.27;;;0.70;99.90;;;;;;4976089;28;20038;-70
2021/01/27 06:20:03;;;;;;;58.30;25.92;;;0.70;99.90;;;;;;4958427;28;20038;-70
2021/01/27 06:22:32;;;;;;;59.88;26.30;;;0.70;99.90;;;;;;4976237;28;20038;-70
2021/01/27 06:25:37;;;;;;;60.47;26.75;;;0.70;99.90;;;;;;4958491;28;20057;-71
2021/01/27 06:28:24;;;;;;;59.58;24.77;;;0.80;99.90;;;;;;4974690;28;20038;-70
2021/01/27 06:31:14;;;;;;;54.70;25.35;;;0.70;99.90;;;;;;4976183;28;20034;-71
2021/01/27 06:34:10;;;;;;;56.70;25.13;;;0.80;99.90;;;;;;4974146;28;20049;-70
2021/01/27 06:36:54;;;;;;;49.28;22.92;;;0.70;99.90;;;;;;4973449;28;20852;-71
2021/01/27 06:39:31;;;;;;;53.33;24.95;;;0.70;99.90;;;;;;4978842;28;20771;-71
2021/01/27 06:42:17;;;;;;;55.15;24.27;;;0.70;99.90;;;;;;4975873;28;20412;-71
2021/01/27 06:45:42;;;;;;;56.38;23.60;;;0.70;99.90;;;;;;4975668;28;20141;-71
2021/01/27 06:48:19;;;;;;;49.90;23.10;;;0.60;99.90;;;;;;4914664;29;20126;-71
2021/01/27 06:51:14;;;;;;;54.78;23.08;;;0.60;99.90;;;;;;4914531;29;20051;-71
2021/01/27 06:53:52;;;;;;;55.28;23.52;;;0.70;99.90;;;;;;4963441;28;20109;-71
2021/01/27 06:56:39;;;;;;;60.75;24.55;;;0.90;99.90;;;;;;4974069;28;20042;-71
2021/01/27 06:59:43;;;;;;;57.40;25.05;;;0.90;99.90;;;;;;4975557;28;20049;-66
2021/01/27 07:02:46;;;;;;;51.42;23.27;;;1.10;99.90;;;;;;4942452;28;20330;-66
2021/01/27 07:05:45;;;;;;;53.10;23.50;;;1.20;99.90;;;;;;4974429;28;20482;-68
2021/01/27 07:08:43;;;;;;;50.67;23.83;;;1.10;99.90;;;;;;4975447;28;20073;-70
2021/01/27 07:11:24;;;;;;;47.83;22.33;;;1.10;99.90;;;;;;4949456;28;20142;-70
2021/01/27 07:14:15;;;;;;;46.25;22.05;;;1.00;99.90;;;;;;4975186;28;20114;-70
2021/01/27 07:17:08;;;;;;;50.10;23.50;;;1.10;99.90;;;;;;4975190;28;20486;-67
2021/01/27 07:20:09;;;;;;;48.55;21.45;;;1.10;99.90;;;;;;4975615;28;20038;-67
2021/01/27 07:22:37;;;;;;;60.90;25.73;;;1.00;99.90;;;;;;4975463;28;20059;-67
2021/01/27 07:25:15;;;;;;;46.80;21.95;;;1.10;99.90;;;;;;4975515;28;20120;-67
2021/01/27 07:28:05;;;;;;;53.47;24.42;;;1.10;99.90;;;;;;4957107;28;20125;-67
2021/01/27 07:30:59;;;;;;;46.65;22.38;;;1.10;99.90;;;;;;4975656;28;20125;-67
2021/01/27 07:33:35;;;;;;;46.75;20.80;;;1.10;99.90;;;;;;4975195;28;20045;-67
2021/01/27 07:36:37;;;;;;;47.50;22.70;;;1.20;99.90;;;;;;4974436;28;20946;-70
2021/01/27 07:39:09;;;;;;;43.63;22.33;;;1.20;99.90;;;;;;4975094;28;20038;-71
2021/01/27 07:41:57;;;;;;;46.80;23.42;;;1.30;99.90;;;;;;4975105;28;20034;-71
2021/01/27 07:44:28;;;;;;;48.72;23.27;;;1.30;99.90;;;;;;4974694;28;20031;-71
2021/01/27 07:47:16;;;;;;;49.92;23.05;;;1.40;99.90;;;;;;4977756;28;20042;-72
2021/01/27 07:49:48;;;;;;;46.90;21.83;;;1.50;99.90;;;;;;4978694;28;20132;-71
2021/01/27 07:52:24;;;;;;;41.28;22.05;;;1.50;99.90;;;;;;4979215;28;20077;-71
2021/01/27 07:55:21;;;;;;;39.92;21.13;;;1.40;99.90;;;;;;4977309;28;20030;-67
2021/01/27 07:57:58;;;;;;;42.47;20.77;;;1.30;99.90;;;;;;4973804;28;20039;-67
2021/01/27 08:00:49;;;;;;;44.90;22.70;;;1.30;99.90;;;;;;4978001;28;20482;-67
2021/01/27 08:03:29;;;;;;;44.60;21.95;;;1.30;99.90;;;;;;4973235;28;20034;-66
2021/01/27 08:06:05;;;;;;;44.67;22.55;;;1.30;99.90;;;;;;4959915;28;20038;-66
2021/01/27 08:08:41;;;;;;;47.95;22.77;;;1.30;99.90;;;;;;4977931;28;20050;-66
2021/01/27 08:11:13;;;;;;;50.00;23.58;;;1.40;99.90;;;;;;4977711;28;20852;-66
2021/01/27 08:13:42;;;;;;;46.72;23.77;;;1.50;99.90;;;;;;4977908;28;20034;-66
2021/01/27 08:16:13;;;;;;;44.33;22.20;;;1.50;99.90;;;;;;4976866;28;20089;-66
2021/01/27 08:19:11;;;;;;;45.97;22.80;;;1.50;99.90;;;;;;4977919;28;20046;-72
2021/01/27 08:21:51;;;;;;;47.13;21.92;;;1.50;99.90;;;;;;4959065;28;20046;-71
2021/01/27 08:24:35;;;;;;;41.60;21.05;;;1.50;99.90;;;;;;4977626;28;20030;-72
2021/01/27 08:27:09;;;;;;;46.80;21.55;;;1.60;99.90;;;;;;4976453;28;20066;-72
2021/01/27 08:29:39;;;;;;;35.33;19.95;;;1.60;99.90;;;;;;4976976;28;20030;-72
2021/01/27 08:32:24;;;;;;;43.40;21.80;;;1.60;99.90;;;;;;4976022;28;20041;-72
2021/01/27 08:34:53;;;;;;;36.55;19.17;;;1.70;99.90;;;;;;4976815;28;20046;-66
2021/01/27 08:37:22;;;;;;;38.05;19.48;;;1.80;99.90;;;;;;4959340;28;20120;-72
2021/01/27 08:39:48;;;;;;;37.45;19.13;;;1.80;99.90;;;;;;4958845;28;20034;-72
2021/01/27 08:45:26;;;;;;;38.72;18.25;;;1.90;99.90;;;;;;4859672;22;20095;-74
2021/01/27 08:47:54;;;;;;;35.35;19.00;;;2.00;99.90;;;;;;5053521;28;20024;-73
2021/01/27 08:50:41;;;;;;;36.45;17.98;;;2.10;99.90;;;;;;5058312;28;20025;-80
2021/01/27 08:53:11;;;;;;;40.22;20.65;;;2.20;99.90;;;;;;5043185;28;20033;-73
2021/01/27 08:55:51;;;;;;;37.90;19.55;;;2.20;99.90;;;;;;5044589;28;20036;-76
2021/01/27 08:58:42;;;;;;;35.10;18.33;;;2.10;99.90;;;;;;5058036;28;20044;-73
2021/01/27 09:01:23;;;;;;;38.05;19.08;;;2.00;99.90;;;;;;5047262;28;20041;-74
2021/01/27 09:03:51;;;;;;;36.05;18.60;;;1.90;99.90;;;;;;5063850;28;20099;-74
2021/01/27 09:06:34;;;;;;;37.47;18.15;;;2.10;99.90;;;;;;5035841;28;20510;-73
2021/01/27 09:09:10;;;;;;;34.20;16.33;;;2.40;99.90;;;;;;5034347;28;20036;-74
2021/01/27 09:11:36;;;;;;;30.13;16.60;;;2.70;99.90;;;;;;5038830;28;20067;-73
2021/01/27 09:14:08;;;;;;;29.65;16.45;;;2.80;99.90;;;;;;5042362;28;20136;-74
2021/01/27 09:16:35;;;;;;;28.60;15.95;;;3.00;99.90;;;;;;5039018;28;20396;-74
2021/01/27 09:19:08;;;;;;;29.25;16.05;;;3.30;99.90;;;;;;5037397;28;20029;-74
2021/01/27 09:21:34;;;;;;;28.52;15.43;;;3.50;99.90;;;;;;5053220;28;20779;-74
2021/01/27 09:24:02;;;;;;;29.98;15.52;;;3.40;99.90;;;;;;5049873;28;20378;-74
2021/01/27 09:26:41;;;;;;;27.77;16.20;;;3.50;99.90;;;;;;5057890;28;20035;-76
2021/01/27 09:29:23;;;;;;;26.52;15.35;;;3.70;99.90;;;;;;5051557;28;20036;-74
2021/01/27 09:31:49;;;;;;;31.75;16.27;;;4.00;99.90;;;;;;5034833;28;20393;-74
2021/01/27 09:34:27;;;;;;;30.65;16.00;;;4.00;99.90;;;;;;5056695;28;20110;-73
2021/01/27 09:37:04;;;;;;;33.85;16.80;;;4.10;99.90;;;;;;5051479;28;20033;-76
2021/01/27 09:39:33;;;;;;;30.30;17.15;;;4.10;99.90;;;;;;5051653;28;20045;-74
2021/01/27 09:42:11;;;;;;;28.15;15.38;;;4.00;99.90;;;;;;5055577;28;20463;-74
2021/01/27 09:44:37;;;;;;;72.18;36.78;;;3.90;99.90;;;;;;5036900;28;20099;-74
2021/01/27 09:47:11;;;;;;;38.03;22.33;;;4.00;99.90;;;;;;5045229;28;20488;-76
2021/01/27 09:49:48;;;;;;;44.07;22.80;;;4.20;99.90;;;;;;5055783;28;20032;-74
2021/01/27 09:52:16;;;;;;;35.22;20.77;;;4.20;99.90;;;;;;5036752;28;20210;-74
2021/01/27 09:54:57;;;;;;;35.85;18.80;;;4.10;99.90;;;;;;5033914;28;20037;-67
2021/01/27 09:57:25;;;;;;;40.17;20.58;;;4.10;99.90;;;;;;5056629;28;20040;-68
2021/01/27 09:59:55;;;;;;;45.50;23.88;;;4.20;99.90;;;;;;5036970;28;20496;-68
2021/01/27 10:02:32;;;;;;;32.55;16.02;;;4.40;99.90;;;;;;5049690;28;20051;-68
2021/01/27 10:04:58;;;;;;;39.35;21.30;;;4.60;99.90;;;;;;5036146;28;20589;-68
2021/01/27 10:07:30;;;;;;;41.85;24.08;;;4.80;99.90;;;;;;5055465;28;20044;-68
2021/01/27 10:10:07;;;;;;;30.42;16.10;;;4.80;99.90;;;;;;5035952;28;20504;-73
2021/01/27 10:12:34;;;;;;;33.10;18.10;;;5.00;99.90;;;;;;5038507;28;20052;-72
2021/01/27 10:15:22;;;;;;;28.70;16.52;;;5.00;99.90;;;;;;5036654;28;20833;-72
2021/01/27 10:18:01;;;;;;;31.33;16.48;;;5.30;99.90;;;;;;5032646;28;20036;-72
2021/01/27 10:20:30;;;;;;;32.70;17.25;;;5.50;99.90;;;;;;5031111;28;20033;-73
2021/01/27 10:22:59;;;;;;;27.92;15.73;;;5.80;99.90;;;;;;5036031;28;20040;-73
2021/01/27 10:25:40;;;;;;;25.15;14.80;;;5.70;99.90;;;;;;5039454;28;20051;-72
2021/01/27 10:28:13;;;;;;;26.63;15.20;;;5.60;99.90;;;;;;5052006;28;20040;-73
2021/01/27 10:30:57;;;;;;;25.00;14.70;;;5.50;99.90;;;;;;5052028;28;20799;-73
2021/01/27 10:33:47;;;;;;;43.70;22.75;;;5.40;99.90;;;;;;5051529;28;20033;-73
2021/01/27 10:36:25;;;;;;;31.83;17.23;;;5.30;99.90;;;;;;5033947;28;20114;-71
2021/01/27 10:39:10;;;;;;;28.33;15.75;;;5.30;99.90;;;;;;5039374;28;20028;-77
2021/01/27 10:41:36;;;;;;;30.33;16.42;;;5.30;99.90;;;;;;5062085;28;20891;-77
2021/01/27 10:44:22;;;;;;;82.85;35.47;;;5.20;99.90;;;;;;5044478;28;20075;-77
2021/01/27 10:46:51;;;;;;;33.17;17.67;;;5.00;99.90;;;;;;5034157;28;20139;-77
2021/01/27 10:49:17;;;;;;;29.35;15.85;;;4.90;99.90;;;;;;5043448;28;20021;-77
2021/01/27 10:51:44;;;;;;;58.85;24.42;;;4.90;99.90;;;;;;5035211;28;20037;-78
2021/01/27 10:54:10;;;;;;;45.85;19.98;;;4.90;99.90;;;;;;5030414;28;20115;-77
2021/01/27 10:56:36;;;;;;;69.78;26.05;;;4.70;99.90;;;;;;5036152;28;20043;-77
2021/01/27 10:59:02;;;;;;;43.00;19.92;;;4.70;99.90;;;;;;5030979;28;20495;-77
2021/01/27 11:01:28;;;;;;;37.95;18.95;;;5.00;99.90;;;;;;5036930;28;20399;-77
2021/01/27 11:03:53;;;;;;;62.65;26.13;;;5.30;99.90;;;;;;5050454;28;20847;-73
2021/01/27 11:06:19;;;;;;;58.28;24.92;;;5.60;99.90;;;;;;5049986;28;20044;-75
2021/01/27 11:08:49;;;;;;;45.25;22.17;;;5.80;99.90;;;;;;5047572;28;20024;-78
2021/01/27 11:11:14;;;;;;;49.33;20.85;;;5.70;99.90;;;;;;5045293;28;20052;-77
2021/01/27 11:13:40;;;;;;;54.53;24.63;;;5.60;99.90;;;;;;5042260;28;20661;-75
2021/01/27 11:16:08;;;;;;;40.00;19.80;;;5.60;99.90;;;;;;5032674;28;20822;-75
2021/01/27 11:18:34;;;;;;;60.42;24.92;;;5.80;99.90;;;;;;5034330;28;20230;-75
2021/01/27 11:21:00;;;;;;;40.75;19.50;;;6.10;99.90;;;;;;5037617;28;20648;-76
2021/01/27 11:23:27;;;;;;;26.02;14.50;;;6.30;99.90;;;;;;5041890;28;20037;-76
2021/01/27 11:25:53;;;;;;;27.95;14.90;;;6.40;99.90;;;;;;5039458;28;20029;-74
2021/01/27 11:28:20;;;;;;;32.60;15.90;;;6.70;99.90;;;;;;5057766;28;20436;-75
2021/01/27 11:30:48;;;;;;;31.15;15.00;;;6.70;99.90;;;;;;5049094;28;20107;-74
2021/01/27 11:33:13;;;;;;;38.30;18.95;;;6.50;99.90;;;;;;5053743;28;20041;-76
2021/01/27 11:35:39;;;;;;;30.35;15.05;;;6.50;99.90;;;;;;5051213;28;20039;-75
2021/01/27 11:38:05;;;;;;;45.63;19.23;;;6.40;99.90;;;;;;5062903;28;20041;-74
2021/01/27 11:40:30;;;;;;;21.48;12.85;;;6.30;99.90;;;;;;5043839;28;20037;-75
2021/01/27 11:42:56;;;;;;;29.15;15.23;;;6.30;99.90;;;;;;5049021;28;20067;-76
2021/01/27 11:45:23;;;;;;;30.77;15.02;;;6.40;99.90;;;;;;5041408;28;20115;-71
2021/01/27 11:47:48;;;;;;;31.55;15.35;;;6.30;99.90;;;;;;5039427;28;20060;-79
2021/01/27 11:50:16;;;;;;;37.95;19.95;;;6.40;99.90;;;;;;5039410;28;21022;-78
2021/01/27 11:52:43;;;;;;;38.33;16.02;;;6.70;99.90;;;;;;5063966;28;20109;-73
2021/01/27 11:55:09;;;;;;;27.92;14.75;;;6.80;99.90;;;;;;5048469;28;20169;-74
2021/01/27 11:57:35;;;;;;;39.55;18.20;;;7.20;99.90;;;;;;5029914;28;20523;-73
2021/01/27 12:00:00;;;;;;;32.60;16.27;;;7.00;99.90;;;;;;5046651;28;20119;-77
2021/01/27 12:02:26;;;;;;;28.02;15.23;;;7.00;99.90;;;;;;5054287;28;20149;-81
2021/01/27 12:04:53;;;;;;;29.25;15.80;;;6.90;99.90;;;;;;5043117;28;20047;-81
2021/01/27 12:07:18;;;;;;;30.00;15.25;;;7.00;99.90;;;;;;5065706;28;20154;-83
2021/01/27 12:09:44;;;;;;;25.10;14.32;;;7.00;99.90;;;;;;5040070;28;20037;-81
2021/01/27 12:12:10;;;;;;;33.78;16.83;;;6.80;99.90;;;;;;5056614;28;20488;-79
2021/01/27 12:14:36;;;;;;;39.30;19.90;;;6.80;99.90;;;;;;5071120;28;20522;-78
2021/01/27 12:17:03;;;;;;;20.45;12.77;;;6.80;99.90;;;;;;5041127;28;20732;-78
2021/01/27 12:19:29;;;;;;;28.60;14.45;;;7.20;99.90;;;;;;5046752;28;20025;-76
2021/01/27 12:21:55;;;;;;;24.65;12.88;;;7.60;99.90;;;;;;5049984;28;20522;-78
2021/01/27 12:24:20;;;;;;;24.27;12.65;;;8.20;99.90;;;;;;5034528;28;20052;-78
2021/01/27 12:26:47;;;;;;;28.30;14.38;;;8.20;98.70;;;;;;5039228;28;20021;-83
2021/01/27 12:29:13;;;;;;;24.73;13.23;;;7.70;99.90;;;;;;5046690;28;20036;-82
2021/01/27 12:31:39;;;;;;;24.20;13.77;;;7.20;99.90;;;;;;5066377;28;20165;-79
2021/01/27 12:34:05;;;;;;;23.08;14.05;;;6.50;99.90;;;;;;5027626;28;20059;-79
2021/01/27 12:36:31;;;;;;;23.95;13.10;;;6.40;99.90;;;;;;5047782;28;20480;-79
2021/01/27 12:38:56;;;;;;;21.95;12.73;;;6.60;99.90;;;;;;5041471;28;20551;-79
2021/01/27 12:41:22;;;;;;;26.02;13.68;;;6.70;99.90;;;;;;5039517;28;20043;-77
2021/01/27 12:43:50;;;;;;;20.55;12.63;;;7.20;99.90;;;;;;5047035;28;20898;-75
2021/01/27 12:46:16;;;;;;;22.75;12.32;;;7.90;99.90;;;;;;5051025;28;20082;-77
2021/01/27 12:48:42;;;;;;;26.90;15.40;;;7.80;99.90;;;;;;5049281;28;20040;-83
2021/01/27 12:51:08;;;;;;;24.48;14.50;;;8.10;99.30;;;;;;5065739;28;20029;-83
2021/01/27 12:53:33;;;;;;;16.05;9.90;;;8.50;98.60;;;;;;5045505;28;20559;-77
2021/01/27 12:55:59;;;;;;;20.90;10.43;;;8.00;98.30;;;;;;5044963;28;20039;-82
2021/01/27 12:58:25;;;;;;;20.23;11.07;;;7.60;99.90;;;;;;5038504;28;20373;-84
2021/01/27 13:00:51;;;;;;;19.10;10.93;;;7.70;99.90;;;;;;5042241;28;20114;-81
2021/01/27 13:03:16;;;;;;;17.08;10.57;;;8.00;99.40;;;;;;5054471;28;20021;-80
2021/01/27 13:05:42;;;;;;;18.92;10.13;;;7.80;98.80;;;;;;5044031;28;20032;-78
2021/01/27 13:08:08;;;;;;;22.90;11.80;;;7.70;99.50;;;;;;5037036;28;20489;-79
2021/01/27 13:10:40;;;;;;;20.48;10.80;;;7.90;99.40;;;;;;5030340;28;20064;-79